createdAt,value
2023-01-13T00:00:55.301Z,20.85
2023-01-13T00:03:22.920Z,20.83
2023-01-13T00:05:50.568Z,20.83
2023-01-13T00:08:18.249Z,20.85
2023-01-13T00:10:47.607Z,20.82
2023-01-13T00:13:16.840Z,20.82
2023-01-13T00:15:44.840Z,20.82
2023-01-13T00:18:12.465Z,20.81
2023-01-13T00:20:40.145Z,20.83
2023-01-13T00:23:07.796Z,20.84
2023-01-13T00:25:35.421Z,20.84
2023-01-13T00:28:03.066Z,20.85
2023-01-13T00:30:32.238Z,20.85
2023-01-13T00:33:00.122Z,20.85
2023-01-13T00:35:27.769Z,20.86
2023-01-13T00:37:55.418Z,20.84
2023-01-13T00:40:23.024Z,20.85
2023-01-13T00:43:08.094Z,20.84
2023-01-13T00:45:37.118Z,20.84
2023-01-13T00:48:04.904Z,20.83
2023-01-13T00:50:32.507Z,20.83
2023-01-13T00:53:00.581Z,20.83
2023-01-13T00:55:28.522Z,20.83
2023-01-13T00:57:56.533Z,20.82
2023-01-13T01:00:24.308Z,20.82
2023-01-13T01:02:53.363Z,20.81
2023-01-13T01:05:21.059Z,20.81
2023-01-13T01:07:48.709Z,20.82
2023-01-13T01:10:16.443Z,20.81
2023-01-13T01:12:44.138Z,20.80
2023-01-13T01:15:12.337Z,20.80
2023-01-13T01:17:39.985Z,20.80
2023-01-13T01:20:10.091Z,20.79
2023-01-13T01:22:37.747Z,20.79
2023-01-13T01:25:05.676Z,20.80
2023-01-13T01:27:33.323Z,20.79
2023-01-13T01:30:00.982Z,20.80
2023-01-13T01:32:28.612Z,20.82
2023-01-13T01:34:56.267Z,20.82
2023-01-13T01:37:25.312Z,20.82
2023-01-13T01:39:52.993Z,20.82
2023-01-13T01:42:38.095Z,20.83
2023-01-13T01:45:12.095Z,20.85
2023-01-13T01:47:39.731Z,20.84
2023-01-13T01:50:07.532Z,20.83
2023-01-13T01:52:37.274Z,20.82
2023-01-13T01:55:06.328Z,20.81
2023-01-13T01:57:37.021Z,20.81
2023-01-13T02:00:05.026Z,20.81
2023-01-13T02:02:32.718Z,20.81
2023-01-13T02:05:00.362Z,20.80
2023-01-13T02:07:28.651Z,20.79
2023-01-13T02:09:57.877Z,20.80
2023-01-13T02:12:33.000Z,20.80
2023-01-13T02:15:01.583Z,20.79
2023-01-13T02:17:34.037Z,20.78
2023-01-13T02:20:31.747Z,20.78
2023-01-13T02:23:36.936Z,20.78
2023-01-13T02:26:11.563Z,20.77
2023-01-13T02:29:03.589Z,20.78
2023-01-13T02:31:43.939Z,20.78
2023-01-13T02:34:11.929Z,20.78
2023-01-13T02:36:40.567Z,20.77
2023-01-13T02:39:11.210Z,20.77
2023-01-13T02:41:57.069Z,20.79
2023-01-13T02:44:26.367Z,20.80
2023-01-13T02:46:56.228Z,20.81
2023-01-13T02:49:25.827Z,20.81
2023-01-13T02:51:53.596Z,20.81
2023-01-13T02:54:21.943Z,20.82
2023-01-13T02:56:50.924Z,20.82
2023-01-13T02:59:18.819Z,20.82
2023-01-13T03:01:46.600Z,20.81
2023-01-13T03:04:15.725Z,20.81
2023-01-13T03:06:47.285Z,20.80
2023-01-13T03:09:16.453Z,20.78
2023-01-13T03:11:47.139Z,20.79
2023-01-13T03:14:18.538Z,20.78
2023-01-13T03:16:49.200Z,20.78
2023-01-13T03:19:21.747Z,20.79
2023-01-13T03:21:52.883Z,20.77
2023-01-13T03:24:21.518Z,20.77
2023-01-13T03:26:49.464Z,20.77
2023-01-13T03:29:19.434Z,20.77
2023-01-13T03:31:48.517Z,20.77
2023-01-13T03:34:17.090Z,20.76
2023-01-13T03:36:46.114Z,20.75
2023-01-13T03:39:14.874Z,20.77
2023-01-13T03:41:45.635Z,20.76
2023-01-13T03:44:25.391Z,20.75
2023-01-13T03:46:55.679Z,20.75
2023-01-13T03:49:23.486Z,20.75
2023-01-13T03:51:53.733Z,20.76
2023-01-13T03:54:21.393Z,20.77
2023-01-13T03:56:49.268Z,20.78
2023-01-13T03:59:17.761Z,20.78
2023-01-13T04:01:47.214Z,20.79
2023-01-13T04:04:15.702Z,20.79
2023-01-13T04:06:45.561Z,20.78
2023-01-13T04:09:15.903Z,20.79
2023-01-13T04:11:44.219Z,20.76
2023-01-13T04:14:11.888Z,20.77
2023-01-13T04:16:39.561Z,20.77
2023-01-13T04:19:07.668Z,20.77
2023-01-13T04:21:35.385Z,20.75
2023-01-13T04:24:03.035Z,20.75
2023-01-13T04:26:32.097Z,20.74
2023-01-13T04:28:59.758Z,20.74
2023-01-13T04:31:27.493Z,20.74
2023-01-13T04:33:55.227Z,20.74
2023-01-13T04:36:25.244Z,20.74
2023-01-13T04:38:52.862Z,20.73
2023-01-13T04:41:20.526Z,20.73
2023-01-13T04:43:49.632Z,20.73
2023-01-13T04:46:17.271Z,20.73
2023-01-13T04:48:44.963Z,20.73
2023-01-13T04:51:12.573Z,20.73
2023-01-13T04:53:40.248Z,20.73
2023-01-13T04:56:08.221Z,20.72
2023-01-13T04:58:35.860Z,20.73
2023-01-13T05:01:05.386Z,20.74
2023-01-13T05:03:34.457Z,20.76
2023-01-13T05:06:03.396Z,20.76
2023-01-13T05:08:32.413Z,20.76
2023-01-13T05:11:00.982Z,20.75
2023-01-13T05:13:45.841Z,20.77
2023-01-13T05:16:33.467Z,20.78
2023-01-13T05:19:01.145Z,20.76
2023-01-13T05:21:46.103Z,20.75
2023-01-13T05:24:31.074Z,20.73
2023-01-13T05:26:58.766Z,20.75
2023-01-13T05:29:26.436Z,20.73
2023-01-13T05:31:55.469Z,20.74
2023-01-13T05:34:23.137Z,20.73
2023-01-13T05:36:50.811Z,20.73
2023-01-13T05:39:18.439Z,20.72
2023-01-13T05:42:02.731Z,20.72
2023-01-13T05:44:30.398Z,20.72
2023-01-13T05:46:59.426Z,20.72
2023-01-13T05:49:27.096Z,20.72
2023-01-13T05:51:54.695Z,20.71
2023-01-13T05:54:22.417Z,20.71
2023-01-13T05:56:50.131Z,20.72
2023-01-13T05:59:17.831Z,20.71
2023-01-13T06:01:45.600Z,20.71
2023-01-13T06:04:15.071Z,20.72
2023-01-13T06:06:43.576Z,20.74
2023-01-13T06:09:11.312Z,20.74
2023-01-13T06:11:39.050Z,20.76
2023-01-13T06:14:06.717Z,20.76
2023-01-13T06:16:34.490Z,20.78
2023-01-13T06:19:02.188Z,20.79
2023-01-13T06:21:33.101Z,20.80
2023-01-13T06:24:00.926Z,20.79
2023-01-13T06:26:29.029Z,20.80
2023-01-13T06:28:56.691Z,20.80
2023-01-13T06:31:24.404Z,20.80
2023-01-13T06:33:53.254Z,20.79
2023-01-13T06:36:22.297Z,20.80
2023-01-13T06:38:52.239Z,20.81
2023-01-13T06:41:39.938Z,20.80
2023-01-13T06:44:06.546Z,20.81
2023-01-13T06:46:34.728Z,20.81
2023-01-13T06:49:02.364Z,20.81
2023-01-13T06:51:30.128Z,20.81
2023-01-13T06:53:59.119Z,20.82
2023-01-13T06:56:26.731Z,20.82
2023-01-13T06:58:54.359Z,20.83
2023-01-13T07:01:22.033Z,20.82
2023-01-13T07:03:49.723Z,20.83
2023-01-13T07:06:17.409Z,20.82
2023-01-13T07:08:45.116Z,20.83
2023-01-13T07:11:14.222Z,20.84
2023-01-13T07:13:59.264Z,20.85
2023-01-13T07:16:28.258Z,20.86
2023-01-13T07:18:56.049Z,20.87
2023-01-13T07:21:23.826Z,20.88
2023-01-13T07:23:51.507Z,20.88
2023-01-13T07:26:20.575Z,20.89
2023-01-13T07:28:48.225Z,20.88
2023-01-13T07:31:16.619Z,20.88
2023-01-13T07:33:44.297Z,20.87
2023-01-13T07:36:12.170Z,20.88
2023-01-13T07:38:39.972Z,20.88
2023-01-13T07:41:21.500Z,20.87
2023-01-13T07:43:50.586Z,20.88
2023-01-13T07:46:18.293Z,20.87
2023-01-13T07:48:46.010Z,20.88
2023-01-13T07:51:13.743Z,20.87
2023-01-13T07:53:41.486Z,20.88
2023-01-13T07:56:09.558Z,20.88
2023-01-13T07:58:37.370Z,20.88
2023-01-13T08:01:09.950Z,20.89
2023-01-13T08:03:37.814Z,20.89
2023-01-13T08:06:05.758Z,20.90
2023-01-13T08:08:33.607Z,20.89
2023-01-13T08:11:01.294Z,20.89
2023-01-13T08:13:30.436Z,20.88
2023-01-13T08:16:00.309Z,20.90
2023-01-13T08:18:29.812Z,20.90
2023-01-13T08:20:57.492Z,20.91
2023-01-13T08:23:25.180Z,20.92
2023-01-13T08:25:52.888Z,20.92
2023-01-13T08:28:20.662Z,20.93
2023-01-13T08:30:49.341Z,20.93
2023-01-13T08:33:17.222Z,20.95
2023-01-13T08:35:46.557Z,20.93
2023-01-13T08:38:14.214Z,20.93
2023-01-13T08:40:48.043Z,20.93
2023-01-13T08:43:16.045Z,20.94
2023-01-13T08:45:43.774Z,20.94
2023-01-13T08:48:11.854Z,20.93
2023-01-13T08:50:39.607Z,20.94
2023-01-13T08:53:08.839Z,20.95
2023-01-13T08:55:36.550Z,20.96
2023-01-13T08:58:15.349Z,20.97
2023-01-13T09:00:45.083Z,20.98
2023-01-13T09:03:14.160Z,20.98
2023-01-13T09:05:41.814Z,20.99
2023-01-13T09:08:11.599Z,21.00
2023-01-13T09:10:40.480Z,21.01
2023-01-13T09:13:13.519Z,21.01
2023-01-13T09:15:41.784Z,21.01
2023-01-13T09:18:09.576Z,21.03
2023-01-13T09:20:38.489Z,21.02
2023-01-13T09:23:08.841Z,21.07
2023-01-13T09:25:41.091Z,21.10
2023-01-13T09:28:09.302Z,21.14
2023-01-13T09:30:38.492Z,21.19
2023-01-13T09:33:23.484Z,21.17
2023-01-13T09:35:51.943Z,21.21
2023-01-13T09:38:19.651Z,21.24
2023-01-13T09:40:48.736Z,21.27
2023-01-13T09:43:36.654Z,21.27
2023-01-13T09:46:05.682Z,21.30
2023-01-13T09:48:34.566Z,21.32
2023-01-13T09:51:04.046Z,21.33
2023-01-13T09:53:33.581Z,21.35
2023-01-13T09:56:02.640Z,21.37
2023-01-13T09:58:30.338Z,21.40
2023-01-13T10:01:05.408Z,21.43
2023-01-13T10:03:33.349Z,21.46
2023-01-13T10:06:05.324Z,21.46
2023-01-13T10:08:34.459Z,21.50
2023-01-13T10:11:25.659Z,21.53
2023-01-13T10:13:52.717Z,21.56
2023-01-13T10:16:23.973Z,21.59
2023-01-13T10:18:55.812Z,21.62
2023-01-13T10:21:32.157Z,21.63
2023-01-13T10:24:02.172Z,21.67
2023-01-13T10:26:43.177Z,21.70
2023-01-13T10:29:22.438Z,21.72
2023-01-13T10:31:51.666Z,21.76
2023-01-13T10:34:20.606Z,21.79
2023-01-13T10:36:55.810Z,21.80
2023-01-13T10:39:23.432Z,21.84
2023-01-13T10:41:53.213Z,21.87
2023-01-13T10:44:20.913Z,21.88
2023-01-13T10:46:52.362Z,21.91
2023-01-13T10:49:27.412Z,21.95
2023-01-13T10:51:55.088Z,21.99
2023-01-13T10:54:24.145Z,22.01
2023-01-13T10:57:13.169Z,22.03
2023-01-13T10:59:42.395Z,22.04
2023-01-13T11:02:27.030Z,22.06
2023-01-13T11:05:01.357Z,22.08
2023-01-13T11:07:29.784Z,22.10
2023-01-13T11:10:05.680Z,22.12
2023-01-13T11:12:35.069Z,22.16
2023-01-13T11:15:03.172Z,22.16
2023-01-13T11:17:34.416Z,22.19
2023-01-13T11:20:05.129Z,22.20
2023-01-13T11:22:35.036Z,22.22
2023-01-13T11:25:02.943Z,22.23
2023-01-13T11:27:40.254Z,22.25
2023-01-13T11:30:11.434Z,22.26
2023-01-13T11:32:41.475Z,22.27
2023-01-13T11:35:15.537Z,22.28
2023-01-13T11:37:43.880Z,22.29
2023-01-13T11:40:13.550Z,22.32
2023-01-13T11:42:43.104Z,22.32
2023-01-13T11:45:17.360Z,22.34
2023-01-13T11:47:45.335Z,22.36
2023-01-13T11:50:16.307Z,22.37
2023-01-13T11:52:50.706Z,22.37
2023-01-13T11:55:22.840Z,22.40
2023-01-13T11:57:56.965Z,22.39
2023-01-13T12:00:39.322Z,22.42
2023-01-13T12:03:21.764Z,22.41
2023-01-13T12:05:53.510Z,22.37
2023-01-13T12:08:23.512Z,22.36
2023-01-13T12:10:55.586Z,22.36
2023-01-13T12:13:27.083Z,22.35
2023-01-13T12:16:02.456Z,22.37
2023-01-13T12:18:39.399Z,22.38
2023-01-13T12:21:15.529Z,22.42
2023-01-13T12:23:44.831Z,22.43
2023-01-13T12:26:12.976Z,22.44
2023-01-13T12:28:45.461Z,22.45
2023-01-13T12:31:13.248Z,22.42
2023-01-13T12:33:46.116Z,22.42
2023-01-13T12:36:15.552Z,22.41
2023-01-13T12:38:44.484Z,22.41
2023-01-13T12:41:15.506Z,22.44
2023-01-13T12:44:02.799Z,22.45
2023-01-13T12:46:38.438Z,22.43
2023-01-13T12:49:07.017Z,22.43
2023-01-13T12:51:36.455Z,22.46
2023-01-13T12:54:04.285Z,22.46
2023-01-13T12:56:36.277Z,22.46
2023-01-13T12:59:31.917Z,22.47
2023-01-13T13:02:15.944Z,22.47
2023-01-13T13:04:48.711Z,22.48
2023-01-13T13:07:16.658Z,22.49
2023-01-13T13:09:44.924Z,22.49
2023-01-13T13:12:44.943Z,22.47
2023-01-13T13:15:22.484Z,22.46
2023-01-13T13:18:04.284Z,22.47
2023-01-13T13:20:53.877Z,22.46
2023-01-13T13:23:30.475Z,22.47
2023-01-13T13:26:01.444Z,22.46
2023-01-13T13:28:33.835Z,22.47
2023-01-13T13:31:11.618Z,22.47
2023-01-13T13:33:41.584Z,22.47
2023-01-13T13:36:12.359Z,22.47
2023-01-13T13:39:12.374Z,22.48
2023-01-13T13:42:00.449Z,22.49
2023-01-13T13:44:52.064Z,22.49
2023-01-13T13:47:19.773Z,22.50
2023-01-13T13:49:50.290Z,22.51
2023-01-13T13:52:20.649Z,22.51
2023-01-13T13:54:50.499Z,22.52
2023-01-13T13:57:18.563Z,22.52
2023-01-13T13:59:46.926Z,22.53
2023-01-13T14:02:21.514Z,22.53
2023-01-13T14:04:49.410Z,22.54
2023-01-13T14:07:18.438Z,22.55
2023-01-13T14:09:47.540Z,22.55
2023-01-13T14:12:18.660Z,22.55
2023-01-13T14:14:49.639Z,22.54
2023-01-13T14:17:20.798Z,22.54
2023-01-13T14:19:52.729Z,22.53
2023-01-13T14:22:20.453Z,22.52
2023-01-13T14:24:50.072Z,22.51
2023-01-13T14:27:19.369Z,22.52
2023-01-13T14:29:47.748Z,22.49
2023-01-13T14:32:16.215Z,22.50
2023-01-13T14:34:45.016Z,22.47
2023-01-13T14:37:32.174Z,22.44
2023-01-13T14:40:00.555Z,22.42
2023-01-13T14:42:31.517Z,22.41
2023-01-13T14:45:01.585Z,22.38
2023-01-13T14:47:29.781Z,22.37
2023-01-13T14:50:01.219Z,22.35
2023-01-13T14:52:29.255Z,22.34
2023-01-13T14:55:13.709Z,22.32
2023-01-13T14:57:42.748Z,22.31
2023-01-13T15:00:20.612Z,22.30
2023-01-13T15:02:48.973Z,22.29
2023-01-13T15:05:33.447Z,22.29
2023-01-13T15:08:01.770Z,22.27
2023-01-13T15:10:29.787Z,22.26
2023-01-13T15:13:00.655Z,22.24
2023-01-13T15:15:28.813Z,22.24
2023-01-13T15:17:57.192Z,22.23
2023-01-13T15:20:25.148Z,22.21
2023-01-13T15:22:54.665Z,22.19
2023-01-13T15:25:22.435Z,22.17
2023-01-13T15:27:51.635Z,22.16
2023-01-13T15:30:21.244Z,22.15
2023-01-13T15:32:49.649Z,22.13
2023-01-13T15:35:17.584Z,22.12
2023-01-13T15:37:46.082Z,22.10
2023-01-13T15:40:14.262Z,22.10
2023-01-13T15:43:01.659Z,22.09
2023-01-13T15:45:47.965Z,22.06
2023-01-13T15:48:16.318Z,22.06
2023-01-13T15:50:45.112Z,22.05
2023-01-13T15:53:15.402Z,22.03
2023-01-13T15:55:43.345Z,22.04
2023-01-13T15:58:13.186Z,22.02
2023-01-13T16:00:46.726Z,22.00
2023-01-13T16:03:16.662Z,22.00
2023-01-13T16:05:44.439Z,21.99
2023-01-13T16:08:12.200Z,21.99
2023-01-13T16:10:40.609Z,21.99
2023-01-13T16:13:08.335Z,21.98
2023-01-13T16:15:35.982Z,21.98
2023-01-13T16:18:06.378Z,21.98
2023-01-13T16:20:34.032Z,21.97
2023-01-13T16:23:01.680Z,21.97
2023-01-13T16:25:33.734Z,21.97
2023-01-13T16:28:02.842Z,21.95
2023-01-13T16:30:30.957Z,21.94
2023-01-13T16:33:00.026Z,21.94
2023-01-13T16:35:31.863Z,21.92
2023-01-13T16:38:00.559Z,21.91
2023-01-13T16:40:31.064Z,21.90
2023-01-13T16:43:01.566Z,21.90
2023-01-13T16:45:29.282Z,21.89
2023-01-13T16:47:56.955Z,21.88
2023-01-13T16:50:33.570Z,21.87
2023-01-13T16:53:01.278Z,21.86
2023-01-13T16:55:29.096Z,21.85
2023-01-13T16:57:57.473Z,21.85
2023-01-13T17:00:27.601Z,21.84
2023-01-13T17:02:56.015Z,21.83
2023-01-13T17:05:23.693Z,21.83
2023-01-13T17:07:54.725Z,21.82
2023-01-13T17:10:22.789Z,21.82
2023-01-13T17:12:50.581Z,21.81
2023-01-13T17:15:19.421Z,21.80
2023-01-13T17:17:51.824Z,21.79
2023-01-13T17:20:20.558Z,21.79
2023-01-13T17:22:57.694Z,21.78
2023-01-13T17:25:27.925Z,21.77
2023-01-13T17:27:55.604Z,21.78
2023-01-13T17:30:23.315Z,21.77
2023-01-13T17:32:51.700Z,21.76
2023-01-13T17:35:24.552Z,21.75
2023-01-13T17:37:53.892Z,21.75
2023-01-13T17:40:21.649Z,21.73
2023-01-13T17:42:50.709Z,21.73
2023-01-13T17:45:19.156Z,21.73
2023-01-13T17:47:47.584Z,21.72
2023-01-13T17:50:15.456Z,21.72
2023-01-13T17:52:43.900Z,21.72
2023-01-13T17:55:11.497Z,21.70
2023-01-13T17:57:39.144Z,21.71
2023-01-13T18:00:09.859Z,21.71
2023-01-13T18:02:37.606Z,21.68
2023-01-13T18:05:06.222Z,21.68
2023-01-13T18:07:33.920Z,21.69
2023-01-13T18:10:03.906Z,21.69
2023-01-13T18:12:31.628Z,21.69
2023-01-13T18:14:59.252Z,21.68
2023-01-13T18:17:29.025Z,21.69
2023-01-13T18:20:14.129Z,21.69
2023-01-13T18:23:01.890Z,21.68
2023-01-13T18:25:46.525Z,21.69
2023-01-13T18:28:16.853Z,21.68
2023-01-13T18:30:44.596Z,21.68
2023-01-13T18:33:13.689Z,21.69
2023-01-13T18:35:42.134Z,21.69
2023-01-13T18:38:12.692Z,21.67
2023-01-13T18:40:40.384Z,21.68
2023-01-13T18:43:07.837Z,21.67
2023-01-13T18:45:35.469Z,21.66
2023-01-13T18:48:04.337Z,21.66
2023-01-13T18:50:34.679Z,21.64
2023-01-13T18:53:02.531Z,21.64
2023-01-13T18:55:31.961Z,21.64
2023-01-13T18:57:59.680Z,21.64
2023-01-13T19:00:31.958Z,21.63
2023-01-13T19:05:36.883Z,21.64
2023-01-13T19:08:04.694Z,21.64
2023-01-13T19:10:32.716Z,21.64
2023-01-13T19:13:02.000Z,21.64
2023-01-13T19:15:29.842Z,21.64
2023-01-13T19:17:58.400Z,21.65
2023-01-13T19:20:26.118Z,21.65
2023-01-13T19:22:55.316Z,21.65
2023-01-13T19:25:29.157Z,21.65
2023-01-13T19:27:56.849Z,21.65
2023-01-13T19:30:25.956Z,21.65
2023-01-13T19:32:53.649Z,21.66
2023-01-13T19:35:21.347Z,21.66
2023-01-13T19:37:50.301Z,21.67
2023-01-13T19:40:19.501Z,21.67
2023-01-13T19:43:05.948Z,21.67
2023-01-13T19:45:35.327Z,21.67
2023-01-13T19:48:05.916Z,21.67
2023-01-13T19:50:36.393Z,21.68
2023-01-13T19:53:04.064Z,21.68
2023-01-13T19:55:33.866Z,21.68
2023-01-13T19:58:01.966Z,21.68
2023-01-13T20:00:32.134Z,21.68
2023-01-13T20:03:05.106Z,21.68
2023-01-13T20:05:32.931Z,21.68
2023-01-13T20:08:01.986Z,21.68
2023-01-13T20:10:31.387Z,21.67
2023-01-13T20:13:00.496Z,21.68
2023-01-13T20:15:29.017Z,21.67
2023-01-13T20:17:57.841Z,21.67
2023-01-13T20:20:26.797Z,21.67
2023-01-13T20:22:56.924Z,21.66
2023-01-13T20:25:25.750Z,21.67
2023-01-13T20:27:54.756Z,21.66
2023-01-13T20:30:23.782Z,21.66
2023-01-13T20:32:52.140Z,21.67
2023-01-13T20:35:20.682Z,21.66
2023-01-13T20:37:48.463Z,21.66
2023-01-13T20:40:17.152Z,21.66
2023-01-13T20:42:45.970Z,21.67
2023-01-13T20:45:17.035Z,21.66
2023-01-13T20:47:47.016Z,21.66
2023-01-13T20:50:14.803Z,21.67
2023-01-13T20:52:42.440Z,21.67
2023-01-13T20:55:12.063Z,21.68
2023-01-13T20:57:39.848Z,21.67
2023-01-13T21:00:08.975Z,21.69
2023-01-13T21:02:37.397Z,21.68
2023-01-13T21:05:07.675Z,21.67
2023-01-13T21:07:35.310Z,21.68
2023-01-13T21:10:03.004Z,21.67
2023-01-13T21:12:48.590Z,21.67
2023-01-13T21:15:20.760Z,21.68
2023-01-13T21:18:06.436Z,21.66
2023-01-13T21:20:36.525Z,21.66
2023-01-13T21:23:04.756Z,21.67
2023-01-13T21:25:35.138Z,21.66
2023-01-13T21:28:09.081Z,21.66
2023-01-13T21:30:37.629Z,21.66
2023-01-13T21:33:06.399Z,21.66
2023-01-13T21:35:40.640Z,21.65
2023-01-13T21:38:08.465Z,21.65
2023-01-13T21:40:39.026Z,21.65
2023-01-13T21:43:24.081Z,21.65
2023-01-13T21:46:09.859Z,21.65
2023-01-13T21:48:37.648Z,21.65
2023-01-13T21:51:06.941Z,21.65
2023-01-13T21:53:35.334Z,21.65
2023-01-13T21:56:03.027Z,21.66
2023-01-13T21:58:30.733Z,21.66
2023-01-13T22:00:59.153Z,21.65
2023-01-13T22:03:27.691Z,21.64
2023-01-13T22:05:56.573Z,21.64
2023-01-13T22:08:25.682Z,21.63
2023-01-13T22:10:58.771Z,21.63
2023-01-13T22:13:44.385Z,21.62
2023-01-13T22:16:12.892Z,21.60
2023-01-13T22:18:40.567Z,21.59
2023-01-13T22:21:10.016Z,21.58
2023-01-13T22:23:39.273Z,21.57
2023-01-13T22:26:07.464Z,21.56
2023-01-13T22:28:41.238Z,21.55
2023-01-13T22:31:09.377Z,21.54
2023-01-13T22:33:38.087Z,21.54
2023-01-13T22:36:05.948Z,21.53
2023-01-13T22:38:34.983Z,21.51
2023-01-13T22:41:06.998Z,21.52
2023-01-13T22:43:34.770Z,21.51
2023-01-13T22:46:03.696Z,21.50
2023-01-13T22:48:31.413Z,21.50
2023-01-13T22:51:05.040Z,21.49
2023-01-13T22:53:32.748Z,21.49
2023-01-13T22:56:01.224Z,21.49
2023-01-13T22:58:30.322Z,21.50
2023-01-13T23:01:01.046Z,21.49
2023-01-13T23:03:29.347Z,21.51
2023-01-13T23:05:59.068Z,21.50
2023-01-13T23:08:26.695Z,21.49
2023-01-13T23:10:54.458Z,21.50
2023-01-13T23:13:22.806Z,21.50
2023-01-13T23:15:52.029Z,21.49
2023-01-13T23:18:21.073Z,21.47
2023-01-13T23:20:48.878Z,21.46
2023-01-13T23:23:17.324Z,21.46
2023-01-13T23:25:49.766Z,21.45
2023-01-13T23:28:18.126Z,21.45
2023-01-13T23:30:45.954Z,21.44
2023-01-13T23:33:15.604Z,21.43
2023-01-13T23:35:43.247Z,21.43
2023-01-13T23:38:11.198Z,21.42
2023-01-13T23:40:38.793Z,21.41
2023-01-13T23:43:06.568Z,21.41
2023-01-13T23:45:34.208Z,21.39
2023-01-13T23:48:02.008Z,21.40
2023-01-13T23:50:31.404Z,21.39
2023-01-13T23:52:59.038Z,21.39
2023-01-13T23:55:26.927Z,21.39
2023-01-13T23:57:54.760Z,21.38
